createdAt,value
2022-10-31T00:02:28.384Z,1.60
2022-10-31T00:07:30.471Z,1.25
2022-10-31T00:12:32.261Z,1.67
2022-10-31T00:17:37.007Z,1.10
2022-10-31T00:22:38.763Z,0.90
2022-10-31T00:27:40.557Z,1.20
2022-10-31T00:32:42.427Z,1.05
2022-10-31T00:37:45.037Z,1.13
2022-10-31T00:42:46.990Z,1.38
2022-10-31T00:47:48.803Z,1.02
2022-10-31T00:52:50.626Z,1.00
2022-10-31T00:57:52.574Z,0.88
2022-10-31T01:02:54.644Z,1.02
2022-10-31T01:07:56.604Z,1.30
2022-10-31T01:12:58.567Z,1.08
2022-10-31T01:18:00.978Z,1.02
2022-10-31T01:23:05.690Z,1.42
2022-10-31T01:28:07.569Z,1.30
2022-10-31T01:33:09.356Z,0.82
2022-10-31T01:38:11.116Z,1.02
2022-10-31T01:43:14.649Z,1.25
2022-10-31T01:48:20.493Z,1.27
2022-10-31T01:53:26.042Z,1.30
2022-10-31T01:58:32.266Z,1.15
2022-10-31T02:03:34.408Z,1.10
2022-10-31T02:08:40.159Z,1.00
2022-10-31T02:13:42.142Z,1.20
2022-10-31T02:18:44.906Z,1.13
2022-10-31T02:24:02.487Z,1.35
2022-10-31T02:29:54.528Z,1.35
2022-10-31T02:35:04.218Z,1.13
2022-10-31T02:40:59.888Z,1.20
2022-10-31T02:46:16.446Z,1.15
2022-10-31T02:51:19.464Z,1.00
2022-10-31T02:56:23.271Z,1.33
2022-10-31T03:01:33.993Z,1.60
2022-10-31T03:06:45.222Z,1.00
2022-10-31T03:12:03.911Z,1.17
2022-10-31T03:17:12.490Z,2.03
2022-10-31T03:22:24.761Z,1.70
2022-10-31T03:27:29.883Z,2.97
2022-10-31T03:32:35.326Z,2.80
2022-10-31T03:37:41.654Z,2.63
2022-10-31T03:42:55.903Z,2.72
2022-10-31T03:48:00.400Z,2.10
2022-10-31T03:53:14.553Z,2.67
2022-10-31T03:58:27.999Z,1.83
2022-10-31T04:03:34.149Z,1.58
2022-10-31T04:08:45.336Z,2.20
2022-10-31T04:13:52.615Z,1.52
2022-10-31T04:18:57.871Z,1.65
2022-10-31T04:23:59.781Z,2.63
2022-10-31T04:29:05.095Z,1.30
2022-10-31T04:34:08.477Z,1.50
2022-10-31T04:39:10.347Z,1.52
2022-10-31T04:44:25.986Z,1.15
2022-10-31T04:49:30.032Z,1.65
2022-10-31T04:54:32.299Z,1.40
2022-10-31T05:00:03.603Z,1.38
2022-10-31T05:05:07.302Z,1.40
2022-10-31T05:10:13.544Z,1.40
2022-10-31T05:15:16.002Z,1.45
2022-10-31T05:20:20.092Z,1.40
2022-10-31T05:25:51.207Z,1.27
2022-10-31T05:30:53.259Z,1.50
2022-10-31T05:35:56.613Z,1.38
2022-10-31T05:41:02.205Z,1.00
2022-10-31T05:46:06.648Z,1.63
2022-10-31T05:51:27.212Z,2.25
2022-10-31T05:56:29.132Z,1.90
2022-10-31T06:01:31.076Z,1.50
2022-10-31T06:06:40.337Z,1.13
2022-10-31T06:11:42.761Z,1.20
2022-10-31T06:16:45.008Z,1.65
2022-10-31T06:27:15.414Z,1.98
2022-10-31T06:32:18.403Z,1.40
2022-10-31T06:37:21.153Z,1.20
2022-10-31T06:42:25.415Z,1.98
2022-10-31T06:47:27.578Z,2.00
2022-10-31T06:52:57.168Z,1.55
2022-10-31T06:58:03.040Z,1.75
2022-10-31T07:03:10.215Z,1.23
2022-10-31T07:08:14.637Z,1.50
2022-10-31T07:13:16.668Z,1.25
2022-10-31T07:18:26.208Z,1.50
2022-10-31T07:23:28.191Z,1.52
2022-10-31T07:28:50.039Z,1.45
2022-10-31T07:33:56.067Z,2.67
2022-10-31T07:39:04.152Z,1.80
2022-10-31T07:44:08.964Z,1.50
2022-10-31T07:49:29.402Z,1.70
2022-10-31T07:54:54.227Z,1.45
2022-10-31T07:59:59.033Z,1.20
2022-10-31T08:05:02.928Z,1.20
2022-10-31T08:10:06.152Z,1.58
2022-10-31T08:15:10.401Z,1.52
2022-10-31T08:20:12.594Z,1.20
2022-10-31T08:25:21.072Z,1.77
2022-10-31T08:30:28.530Z,1.60
2022-10-31T08:36:08.852Z,1.58
2022-10-31T08:41:28.285Z,1.98
2022-10-31T08:46:30.364Z,1.77
2022-10-31T08:51:32.385Z,1.58
2022-10-31T08:56:34.633Z,1.55
2022-10-31T09:01:39.729Z,1.58
2022-10-31T09:06:50.340Z,1.73
2022-10-31T09:11:57.846Z,1.73
2022-10-31T09:17:23.819Z,2.60
2022-10-31T09:23:06.994Z,1.65
2022-10-31T09:28:15.171Z,2.08
2022-10-31T09:33:18.764Z,2.38
2022-10-31T09:38:29.564Z,2.25
2022-10-31T09:43:37.359Z,2.10
2022-10-31T09:49:02.218Z,2.17
2022-10-31T09:54:31.270Z,2.58
2022-10-31T09:59:40.388Z,2.85
2022-10-31T10:04:58.258Z,1.73
2022-10-31T10:10:03.044Z,2.40
2022-10-31T10:16:12.731Z,2.13
2022-10-31T10:21:32.446Z,2.40
2022-10-31T10:26:41.520Z,2.30
2022-10-31T10:31:47.080Z,2.17
2022-10-31T10:36:55.743Z,3.05
2022-10-31T10:42:18.596Z,2.60
2022-10-31T10:47:38.604Z,2.90
2022-10-31T10:53:22.613Z,2.92
2022-10-31T10:58:24.563Z,2.30
2022-10-31T11:03:26.586Z,2.97
2022-10-31T11:08:29.839Z,2.75
2022-10-31T11:13:34.127Z,2.55
2022-10-31T11:18:40.350Z,2.67
2022-10-31T11:23:42.307Z,4.13
2022-10-31T11:28:45.324Z,3.15
2022-10-31T11:33:55.719Z,3.80
2022-10-31T11:39:00.813Z,3.28
2022-10-31T11:44:06.547Z,3.17
2022-10-31T11:49:24.672Z,2.97
2022-10-31T11:54:30.794Z,4.10
2022-10-31T11:59:33.207Z,3.22
2022-10-31T12:04:46.160Z,4.05
2022-10-31T12:09:48.263Z,3.25
2022-10-31T12:15:05.473Z,3.72
2022-10-31T12:20:16.235Z,3.50
2022-10-31T12:25:20.621Z,3.13
2022-10-31T12:30:42.217Z,2.78
2022-10-31T12:36:12.495Z,2.35
2022-10-31T12:41:52.967Z,3.00
2022-10-31T12:47:18.777Z,3.05
2022-10-31T12:52:23.130Z,3.10
2022-10-31T12:57:41.306Z,3.25
2022-10-31T13:02:43.084Z,3.10
2022-10-31T13:07:51.844Z,2.90
2022-10-31T13:12:59.542Z,3.63
2022-10-31T13:18:13.116Z,2.50
2022-10-31T13:23:48.947Z,2.92
2022-10-31T13:29:12.066Z,4.50
2022-10-31T13:34:23.383Z,3.30
2022-10-31T13:39:37.335Z,2.75
2022-10-31T13:44:39.562Z,3.88
2022-10-31T13:49:41.546Z,3.00
2022-10-31T13:54:57.034Z,2.83
2022-10-31T14:00:25.589Z,3.00
2022-10-31T14:05:34.023Z,3.05
2022-10-31T14:10:46.918Z,3.03
2022-10-31T14:16:02.265Z,3.35
2022-10-31T14:21:25.893Z,3.38
2022-10-31T14:26:32.867Z,3.55
2022-10-31T14:31:52.828Z,3.70
2022-10-31T14:37:03.556Z,2.70
2022-10-31T14:42:30.224Z,2.90
2022-10-31T14:47:35.177Z,3.78
2022-10-31T14:52:39.193Z,2.70
2022-10-31T14:57:51.112Z,2.80
2022-10-31T15:03:06.683Z,2.88
2022-10-31T15:08:28.346Z,2.53
2022-10-31T15:13:30.358Z,3.50
2022-10-31T15:18:32.248Z,2.90
2022-10-31T15:23:34.246Z,2.83
2022-10-31T15:28:36.163Z,3.03
2022-10-31T15:33:47.865Z,3.97
2022-10-31T15:38:51.785Z,5.13
2022-10-31T15:43:53.720Z,5.00
2022-10-31T15:48:55.649Z,4.82
2022-10-31T15:53:58.928Z,4.85
2022-10-31T15:59:02.768Z,4.50
2022-10-31T16:04:13.857Z,4.53
2022-10-31T16:09:23.519Z,4.57
2022-10-31T16:14:29.423Z,4.25
2022-10-31T16:19:35.431Z,4.75
2022-10-31T16:24:49.386Z,4.40
2022-10-31T16:29:51.335Z,4.03
2022-10-31T16:35:00.722Z,4.40
2022-10-31T16:40:02.596Z,4.63
2022-10-31T16:45:06.979Z,5.22
2022-10-31T16:50:35.295Z,5.38
2022-10-31T17:00:45.455Z,7.53
2022-10-31T17:05:47.435Z,7.32
2022-10-31T17:10:52.463Z,7.40
2022-10-31T17:15:57.103Z,8.10
2022-10-31T17:21:01.738Z,7.10
2022-10-31T17:26:03.662Z,7.03
2022-10-31T17:31:05.867Z,6.75
2022-10-31T17:36:08.034Z,6.55
2022-10-31T17:41:11.443Z,5.35
2022-10-31T17:46:13.634Z,5.38
2022-10-31T17:51:15.503Z,5.25
2022-10-31T17:56:17.343Z,4.78
2022-10-31T18:01:19.625Z,5.00
2022-10-31T18:06:21.702Z,4.47
2022-10-31T18:11:24.044Z,3.92
2022-10-31T18:16:26.831Z,4.45
2022-10-31T18:21:29.359Z,4.50
2022-10-31T18:26:31.390Z,5.18
2022-10-31T18:31:33.272Z,5.55
2022-10-31T18:36:35.323Z,6.00
2022-10-31T18:41:38.686Z,6.07
2022-10-31T18:46:40.535Z,5.50
2022-10-31T18:51:42.358Z,5.22
2022-10-31T18:56:44.653Z,4.63
2022-10-31T19:01:46.849Z,4.63
2022-10-31T19:06:48.834Z,5.18
2022-10-31T19:11:50.838Z,4.95
2022-10-31T19:16:53.854Z,4.80
2022-10-31T19:21:56.846Z,4.93
2022-10-31T19:27:00.657Z,5.30
2022-10-31T19:32:02.589Z,3.92
2022-10-31T19:37:04.851Z,4.78
2022-10-31T19:42:06.725Z,4.13
2022-10-31T19:47:08.593Z,4.88
2022-10-31T19:52:10.324Z,5.22
2022-10-31T19:57:12.264Z,5.35
2022-10-31T20:02:19.841Z,4.65
2022-10-31T20:07:21.604Z,6.05
2022-10-31T20:12:23.549Z,5.75
2022-10-31T20:17:25.628Z,4.78
2022-10-31T20:22:27.506Z,5.15
2022-10-31T20:27:29.299Z,5.53
2022-10-31T20:32:31.401Z,6.07
2022-10-31T20:37:33.257Z,5.88
2022-10-31T20:42:35.113Z,5.38
2022-10-31T20:47:36.941Z,6.10
2022-10-31T20:52:40.669Z,5.07
2022-10-31T20:57:42.508Z,5.32
2022-10-31T21:02:44.666Z,4.28
2022-10-31T21:07:46.448Z,3.67
2022-10-31T21:12:48.409Z,4.28
2022-10-31T21:17:50.287Z,4.85
2022-10-31T21:22:52.116Z,3.97
2022-10-31T21:27:53.979Z,4.50
2022-10-31T21:32:56.023Z,4.10
2022-10-31T21:38:00.904Z,4.00
2022-10-31T21:43:03.201Z,4.57
2022-10-31T21:48:05.497Z,5.60
2022-10-31T21:53:26.098Z,4.30
2022-10-31T21:58:30.607Z,5.15
2022-10-31T22:03:36.869Z,4.95
2022-10-31T22:08:40.699Z,4.85
2022-10-31T22:13:44.362Z,5.22
2022-10-31T22:18:47.102Z,4.90
2022-10-31T22:23:51.886Z,4.97
2022-10-31T22:28:56.292Z,4.68
2022-10-31T22:33:58.636Z,5.07
2022-10-31T22:39:00.583Z,5.03
2022-10-31T22:44:05.186Z,4.93
2022-10-31T22:49:11.216Z,5.35
2022-10-31T22:54:18.372Z,5.15
2022-10-31T22:59:20.758Z,5.53
2022-10-31T23:04:23.669Z,5.65
2022-10-31T23:09:25.566Z,4.97
2022-10-31T23:14:27.502Z,6.57
2022-10-31T23:19:30.516Z,6.30
2022-10-31T23:24:38.874Z,5.03
2022-10-31T23:29:45.310Z,5.50
2022-10-31T23:34:49.303Z,5.45
2022-10-31T23:39:51.544Z,5.45
2022-10-31T23:44:54.366Z,5.78
2022-10-31T23:49:56.204Z,4.65
2022-10-31T23:54:59.846Z,5.03
